sensor_id;sensor_type;location;lat;lon;timestamp;P1;durP1;ratioP1;P2;durP2;ratioP2
71127;SDS011;59249;59.736;30.568;2023-05-13T00:00:02;7.85;;;3.90;;
71127;SDS011;59249;59.736;30.568;2023-05-13T00:02:36;10.20;;;4.00;;
71127;SDS011;59249;59.736;30.568;2023-05-13T00:05:05;8.30;;;3.72;;
71127;SDS011;59249;59.736;30.568;2023-05-13T00:07:35;9.40;;;3.90;;
71127;SDS011;59249;59.736;30.568;2023-05-13T00:10:04;9.93;;;3.97;;
71127;SDS011;59249;59.736;30.568;2023-05-13T00:12:34;9.43;;;3.80;;
71127;SDS011;59249;59.736;30.568;2023-05-13T00:15:03;8.50;;;3.60;;
71127;SDS011;59249;59.736;30.568;2023-05-13T00:17:33;11.15;;;4.07;;
71127;SDS011;59249;59.736;30.568;2023-05-13T00:20:04;8.60;;;3.40;;
71127;SDS011;59249;59.736;30.568;2023-05-13T00:22:34;6.53;;;3.28;;
71127;SDS011;59249;59.736;30.568;2023-05-13T00:25:03;7.50;;;3.70;;
71127;SDS011;59249;59.736;30.568;2023-05-13T00:27:32;9.40;;;3.90;;
71127;SDS011;59249;59.736;30.568;2023-05-13T00:30:02;7.53;;;3.90;;
71127;SDS011;59249;59.736;30.568;2023-05-13T00:32:33;16.77;;;4.55;;
71127;SDS011;59249;59.736;30.568;2023-05-13T00:35:04;9.63;;;4.45;;
71127;SDS011;59249;59.736;30.568;2023-05-13T00:37:33;9.57;;;4.10;;
71127;SDS011;59249;59.736;30.568;2023-05-13T00:40:02;14.27;;;4.53;;
71127;SDS011;59249;59.736;30.568;2023-05-13T00:42:33;13.25;;;5.10;;
71127;SDS011;59249;59.736;30.568;2023-05-13T00:45:02;11.73;;;4.38;;
71127;SDS011;59249;59.736;30.568;2023-05-13T00:47:32;10.77;;;4.78;;
71127;SDS011;59249;59.736;30.568;2023-05-13T00:50:00;10.48;;;5.18;;
71127;SDS011;59249;59.736;30.568;2023-05-13T00:52:31;9.13;;;4.67;;
71127;SDS011;59249;59.736;30.568;2023-05-13T00:55:02;9.90;;;4.72;;
71127;SDS011;59249;59.736;30.568;2023-05-13T00:57:31;14.13;;;4.88;;
71127;SDS011;59249;59.736;30.568;2023-05-13T01:00:01;9.98;;;4.38;;
71127;SDS011;59249;59.736;30.568;2023-05-13T01:02:34;12.00;;;4.38;;
71127;SDS011;59249;59.736;30.568;2023-05-13T01:05:30;9.93;;;4.80;;
71127;SDS011;59249;59.736;30.568;2023-05-13T01:08:22;10.05;;;4.15;;
71127;SDS011;59249;59.736;30.568;2023-05-13T01:11:02;9.75;;;5.00;;
71127;SDS011;59249;59.736;30.568;2023-05-13T01:13:37;8.85;;;3.83;;
71127;SDS011;59249;59.736;30.568;2023-05-13T01:16:11;10.73;;;4.40;;
71127;SDS011;59249;59.736;30.568;2023-05-13T01:18:47;10.30;;;4.57;;
71127;SDS011;59249;59.736;30.568;2023-05-13T01:21:23;8.02;;;4.20;;
71127;SDS011;59249;59.736;30.568;2023-05-13T01:23:53;9.13;;;3.95;;
71127;SDS011;59249;59.736;30.568;2023-05-13T01:26:23;11.55;;;3.97;;
71127;SDS011;59249;59.736;30.568;2023-05-13T01:28:52;11.63;;;3.88;;
71127;SDS011;59249;59.736;30.568;2023-05-13T01:31:21;11.27;;;4.00;;
71127;SDS011;59249;59.736;30.568;2023-05-13T01:33:51;8.98;;;3.65;;
71127;SDS011;59249;59.736;30.568;2023-05-13T01:36:20;9.68;;;3.78;;
71127;SDS011;59249;59.736;30.568;2023-05-13T01:38:51;13.38;;;4.22;;
71127;SDS011;59249;59.736;30.568;2023-05-13T01:41:25;7.97;;;3.60;;
71127;SDS011;59249;59.736;30.568;2023-05-13T01:43:54;10.10;;;3.60;;
71127;SDS011;59249;59.736;30.568;2023-05-13T01:46:23;8.82;;;3.58;;
71127;SDS011;59249;59.736;30.568;2023-05-13T01:48:52;10.82;;;3.30;;
71127;SDS011;59249;59.736;30.568;2023-05-13T01:51:21;9.23;;;3.67;;
71127;SDS011;59249;59.736;30.568;2023-05-13T01:53:51;8.20;;;3.47;;
71127;SDS011;59249;59.736;30.568;2023-05-13T01:56:19;7.73;;;3.67;;
71127;SDS011;59249;59.736;30.568;2023-05-13T01:58:49;7.38;;;3.08;;
71127;SDS011;59249;59.736;30.568;2023-05-13T02:01:18;6.32;;;2.97;;
71127;SDS011;59249;59.736;30.568;2023-05-13T02:03:48;10.43;;;3.88;;
71127;SDS011;59249;59.736;30.568;2023-05-13T02:06:18;7.18;;;3.45;;
71127;SDS011;59249;59.736;30.568;2023-05-13T02:08:49;8.50;;;3.50;;
71127;SDS011;59249;59.736;30.568;2023-05-13T02:11:17;9.55;;;3.60;;
71127;SDS011;59249;59.736;30.568;2023-05-13T02:13:46;9.55;;;3.58;;
71127;SDS011;59249;59.736;30.568;2023-05-13T02:16:15;8.60;;;3.42;;
71127;SDS011;59249;59.736;30.568;2023-05-13T02:18:45;7.40;;;3.63;;
71127;SDS011;59249;59.736;30.568;2023-05-13T02:21:13;8.70;;;3.73;;
71127;SDS011;59249;59.736;30.568;2023-05-13T02:23:43;9.25;;;3.58;;
71127;SDS011;59249;59.736;30.568;2023-05-13T02:26:13;9.25;;;4.70;;
71127;SDS011;59249;59.736;30.568;2023-05-13T02:28:42;11.23;;;4.47;;
71127;SDS011;59249;59.736;30.568;2023-05-13T02:31:12;9.80;;;4.45;;
71127;SDS011;59249;59.736;30.568;2023-05-13T02:33:43;10.50;;;3.50;;
71127;SDS011;59249;59.736;30.568;2023-05-13T02:36:12;9.00;;;4.07;;
71127;SDS011;59249;59.736;30.568;2023-05-13T02:38:40;10.18;;;4.22;;
71127;SDS011;59249;59.736;30.568;2023-05-13T02:41:13;10.15;;;3.97;;
71127;SDS011;59249;59.736;30.568;2023-05-13T02:43:42;8.45;;;3.55;;
71127;SDS011;59249;59.736;30.568;2023-05-13T02:46:10;7.73;;;3.30;;
71127;SDS011;59249;59.736;30.568;2023-05-13T02:48:39;7.40;;;3.90;;
71127;SDS011;59249;59.736;30.568;2023-05-13T02:51:08;9.77;;;4.38;;
71127;SDS011;59249;59.736;30.568;2023-05-13T02:53:37;10.48;;;3.85;;
71127;SDS011;59249;59.736;30.568;2023-05-13T02:56:07;8.52;;;3.08;;
71127;SDS011;59249;59.736;30.568;2023-05-13T02:58:37;8.63;;;3.13;;
71127;SDS011;59249;59.736;30.568;2023-05-13T03:01:06;12.13;;;3.63;;
71127;SDS011;59249;59.736;30.568;2023-05-13T03:03:35;7.45;;;3.08;;
71127;SDS011;59249;59.736;30.568;2023-05-13T03:06:04;8.50;;;3.17;;
71127;SDS011;59249;59.736;30.568;2023-05-13T03:08:34;9.55;;;3.25;;
71127;SDS011;59249;59.736;30.568;2023-05-13T03:11:03;7.07;;;3.23;;
71127;SDS011;59249;59.736;30.568;2023-05-13T03:13:31;8.90;;;3.38;;
71127;SDS011;59249;59.736;30.568;2023-05-13T03:16:01;7.30;;;3.00;;
71127;SDS011;59249;59.736;30.568;2023-05-13T03:18:31;6.63;;;3.05;;
71127;SDS011;59249;59.736;30.568;2023-05-13T03:20:59;7.88;;;3.42;;
71127;SDS011;59249;59.736;30.568;2023-05-13T03:23:28;9.87;;;2.90;;
71127;SDS011;59249;59.736;30.568;2023-05-13T03:25:57;16.75;;;3.00;;
71127;SDS011;59249;59.736;30.568;2023-05-13T03:28:28;8.07;;;3.28;;
71127;SDS011;59249;59.736;30.568;2023-05-13T03:30:57;6.38;;;2.70;;
71127;SDS011;59249;59.736;30.568;2023-05-13T03:33:29;8.60;;;3.22;;
71127;SDS011;59249;59.736;30.568;2023-05-13T03:35:58;8.97;;;2.57;;
71127;SDS011;59249;59.736;30.568;2023-05-13T03:38:30;10.40;;;2.85;;
71127;SDS011;59249;59.736;30.568;2023-05-13T03:40:59;9.93;;;2.97;;
71127;SDS011;59249;59.736;30.568;2023-05-13T03:43:28;9.32;;;3.30;;
71127;SDS011;59249;59.736;30.568;2023-05-13T03:46:00;9.40;;;3.20;;
71127;SDS011;59249;59.736;30.568;2023-05-13T03:48:31;7.90;;;2.80;;
71127;SDS011;59249;59.736;30.568;2023-05-13T03:51:01;9.38;;;2.83;;
71127;SDS011;59249;59.736;30.568;2023-05-13T03:53:30;8.23;;;3.38;;
71127;SDS011;59249;59.736;30.568;2023-05-13T03:55:59;7.88;;;3.65;;
71127;SDS011;59249;59.736;30.568;2023-05-13T03:58:28;7.97;;;3.10;;
71127;SDS011;59249;59.736;30.568;2023-05-13T04:00:57;7.87;;;3.10;;
71127;SDS011;59249;59.736;30.568;2023-05-13T04:03:25;8.07;;;3.20;;
71127;SDS011;59249;59.736;30.568;2023-05-13T04:05:56;7.03;;;3.30;;
71127;SDS011;59249;59.736;30.568;2023-05-13T04:08:25;10.40;;;3.20;;
71127;SDS011;59249;59.736;30.568;2023-05-13T04:10:53;9.90;;;3.30;;
71127;SDS011;59249;59.736;30.568;2023-05-13T04:13:25;11.83;;;3.83;;
71127;SDS011;59249;59.736;30.568;2023-05-13T04:15:53;9.57;;;3.55;;
71127;SDS011;59249;59.736;30.568;2023-05-13T04:18:22;6.88;;;3.40;;
71127;SDS011;59249;59.736;30.568;2023-05-13T04:20:51;6.70;;;3.25;;
71127;SDS011;59249;59.736;30.568;2023-05-13T04:23:21;8.70;;;3.55;;
71127;SDS011;59249;59.736;30.568;2023-05-13T04:25:50;10.30;;;3.73;;
71127;SDS011;59249;59.736;30.568;2023-05-13T04:28:19;13.63;;;4.25;;
71127;SDS011;59249;59.736;30.568;2023-05-13T04:30:49;10.02;;;4.20;;
71127;SDS011;59249;59.736;30.568;2023-05-13T04:33:18;12.55;;;3.90;;
71127;SDS011;59249;59.736;30.568;2023-05-13T04:35:48;12.30;;;4.25;;
71127;SDS011;59249;59.736;30.568;2023-05-13T04:38:16;10.83;;;4.13;;
71127;SDS011;59249;59.736;30.568;2023-05-13T04:40:47;6.82;;;3.45;;
71127;SDS011;59249;59.736;30.568;2023-05-13T04:43:21;13.20;;;4.07;;
71127;SDS011;59249;59.736;30.568;2023-05-13T04:45:54;11.57;;;4.13;;
71127;SDS011;59249;59.736;30.568;2023-05-13T04:48:23;13.45;;;4.70;;
71127;SDS011;59249;59.736;30.568;2023-05-13T04:50:56;9.00;;;3.87;;
71127;SDS011;59249;59.736;30.568;2023-05-13T04:53:26;9.18;;;4.25;;
71127;SDS011;59249;59.736;30.568;2023-05-13T04:56:00;10.27;;;4.13;;
71127;SDS011;59249;59.736;30.568;2023-05-13T04:58:29;7.55;;;3.78;;
71127;SDS011;59249;59.736;30.568;2023-05-13T05:00:58;9.02;;;4.00;;
71127;SDS011;59249;59.736;30.568;2023-05-13T05:03:27;7.73;;;3.73;;
71127;SDS011;59249;59.736;30.568;2023-05-13T05:05:58;9.80;;;4.13;;
71127;SDS011;59249;59.736;30.568;2023-05-13T05:08:27;10.93;;;3.90;;
71127;SDS011;59249;59.736;30.568;2023-05-13T05:10:56;7.97;;;4.00;;
71127;SDS011;59249;59.736;30.568;2023-05-13T05:13:30;12.70;;;4.90;;
71127;SDS011;59249;59.736;30.568;2023-05-13T05:15:59;8.50;;;4.17;;
71127;SDS011;59249;59.736;30.568;2023-05-13T05:18:29;12.55;;;4.95;;
71127;SDS011;59249;59.736;30.568;2023-05-13T05:20:58;9.23;;;4.47;;
71127;SDS011;59249;59.736;30.568;2023-05-13T05:23:28;12.60;;;4.38;;
71127;SDS011;59249;59.736;30.568;2023-05-13T05:25:59;10.57;;;4.85;;
71127;SDS011;59249;59.736;30.568;2023-05-13T05:28:40;11.50;;;4.80;;
71127;SDS011;59249;59.736;30.568;2023-05-13T05:31:11;12.15;;;5.10;;
71127;SDS011;59249;59.736;30.568;2023-05-13T05:33:40;15.43;;;4.60;;
71127;SDS011;59249;59.736;30.568;2023-05-13T05:36:10;10.38;;;3.97;;
71127;SDS011;59249;59.736;30.568;2023-05-13T05:38:39;15.77;;;6.03;;
71127;SDS011;59249;59.736;30.568;2023-05-13T05:41:10;24.03;;;5.03;;
71127;SDS011;59249;59.736;30.568;2023-05-13T05:43:39;14.38;;;4.95;;
71127;SDS011;59249;59.736;30.568;2023-05-13T05:46:08;22.10;;;4.03;;
71127;SDS011;59249;59.736;30.568;2023-05-13T05:48:37;10.20;;;3.97;;
71127;SDS011;59249;59.736;30.568;2023-05-13T05:51:06;8.32;;;3.78;;
71127;SDS011;59249;59.736;30.568;2023-05-13T05:53:35;11.33;;;3.73;;
71127;SDS011;59249;59.736;30.568;2023-05-13T05:56:10;7.38;;;3.70;;
71127;SDS011;59249;59.736;30.568;2023-05-13T05:58:40;13.27;;;4.00;;
71127;SDS011;59249;59.736;30.568;2023-05-13T06:01:09;14.90;;;4.00;;
71127;SDS011;59249;59.736;30.568;2023-05-13T06:03:38;13.90;;;4.35;;
71127;SDS011;59249;59.736;30.568;2023-05-13T06:06:06;19.37;;;5.20;;
71127;SDS011;59249;59.736;30.568;2023-05-13T06:08:35;10.38;;;3.60;;
71127;SDS011;59249;59.736;30.568;2023-05-13T06:11:06;14.23;;;5.00;;
71127;SDS011;59249;59.736;30.568;2023-05-13T06:13:36;14.55;;;3.72;;
71127;SDS011;59249;59.736;30.568;2023-05-13T06:16:05;10.98;;;3.65;;
71127;SDS011;59249;59.736;30.568;2023-05-13T06:18:37;10.07;;;3.90;;
71127;SDS011;59249;59.736;30.568;2023-05-13T06:21:06;9.68;;;3.90;;
71127;SDS011;59249;59.736;30.568;2023-05-13T06:23:34;10.43;;;3.83;;
71127;SDS011;59249;59.736;30.568;2023-05-13T06:26:03;10.02;;;3.70;;
71127;SDS011;59249;59.736;30.568;2023-05-13T06:28:33;11.80;;;3.95;;
71127;SDS011;59249;59.736;30.568;2023-05-13T06:31:04;11.70;;;3.83;;
71127;SDS011;59249;59.736;30.568;2023-05-13T06:33:32;9.68;;;3.50;;
71127;SDS011;59249;59.736;30.568;2023-05-13T06:36:02;15.35;;;3.67;;
71127;SDS011;59249;59.736;30.568;2023-05-13T06:38:31;12.02;;;4.28;;
71127;SDS011;59249;59.736;30.568;2023-05-13T06:41:01;8.10;;;2.88;;
71127;SDS011;59249;59.736;30.568;2023-05-13T06:43:33;11.70;;;3.63;;
71127;SDS011;59249;59.736;30.568;2023-05-13T06:46:20;8.70;;;3.58;;
71127;SDS011;59249;59.736;30.568;2023-05-13T06:48:49;7.78;;;3.20;;
71127;SDS011;59249;59.736;30.568;2023-05-13T06:51:18;9.90;;;3.80;;
71127;SDS011;59249;59.736;30.568;2023-05-13T06:53:46;10.15;;;3.58;;
71127;SDS011;59249;59.736;30.568;2023-05-13T06:56:15;10.70;;;3.77;;
71127;SDS011;59249;59.736;30.568;2023-05-13T06:58:45;7.85;;;3.70;;
71127;SDS011;59249;59.736;30.568;2023-05-13T07:01:14;7.85;;;3.40;;
71127;SDS011;59249;59.736;30.568;2023-05-13T07:03:43;9.88;;;3.63;;
71127;SDS011;59249;59.736;30.568;2023-05-13T07:06:12;6.95;;;3.60;;
71127;SDS011;59249;59.736;30.568;2023-05-13T07:08:41;12.83;;;3.97;;
71127;SDS011;59249;59.736;30.568;2023-05-13T07:11:10;8.48;;;3.42;;
71127;SDS011;59249;59.736;30.568;2023-05-13T07:13:39;7.40;;;3.22;;
71127;SDS011;59249;59.736;30.568;2023-05-13T07:16:09;13.23;;;4.10;;
71127;SDS011;59249;59.736;30.568;2023-05-13T07:18:38;9.05;;;3.35;;
71127;SDS011;59249;59.736;30.568;2023-05-13T07:21:06;9.60;;;3.17;;
71127;SDS011;59249;59.736;30.568;2023-05-13T07:23:35;9.70;;;3.85;;
71127;SDS011;59249;59.736;30.568;2023-05-13T07:26:04;9.93;;;4.03;;
71127;SDS011;59249;59.736;30.568;2023-05-13T07:28:33;7.43;;;3.42;;
71127;SDS011;59249;59.736;30.568;2023-05-13T07:31:03;12.52;;;3.70;;
71127;SDS011;59249;59.736;30.568;2023-05-13T07:33:34;11.53;;;4.27;;
71127;SDS011;59249;59.736;30.568;2023-05-13T07:36:03;8.68;;;3.80;;
71127;SDS011;59249;59.736;30.568;2023-05-13T07:38:32;12.82;;;4.07;;
71127;SDS011;59249;59.736;30.568;2023-05-13T07:41:01;9.27;;;3.60;;
71127;SDS011;59249;59.736;30.568;2023-05-13T07:43:30;11.77;;;4.28;;
71127;SDS011;59249;59.736;30.568;2023-05-13T07:46:01;10.80;;;4.67;;
71127;SDS011;59249;59.736;30.568;2023-05-13T07:48:29;11.90;;;3.50;;
71127;SDS011;59249;59.736;30.568;2023-05-13T07:51:00;9.52;;;3.63;;
71127;SDS011;59249;59.736;30.568;2023-05-13T07:53:28;10.50;;;4.00;;
71127;SDS011;59249;59.736;30.568;2023-05-13T07:55:57;7.32;;;3.05;;
71127;SDS011;59249;59.736;30.568;2023-05-13T07:58:26;10.00;;;3.33;;
71127;SDS011;59249;59.736;30.568;2023-05-13T08:00:55;11.73;;;3.80;;
71127;SDS011;59249;59.736;30.568;2023-05-13T08:03:24;9.43;;;4.00;;
71127;SDS011;59249;59.736;30.568;2023-05-13T08:05:53;11.95;;;3.80;;
71127;SDS011;59249;59.736;30.568;2023-05-13T08:08:23;7.00;;;3.35;;
71127;SDS011;59249;59.736;30.568;2023-05-13T08:10:51;9.67;;;3.23;;
71127;SDS011;59249;59.736;30.568;2023-05-13T08:13:20;11.18;;;3.92;;
71127;SDS011;59249;59.736;30.568;2023-05-13T08:15:49;7.70;;;2.95;;
71127;SDS011;59249;59.736;30.568;2023-05-13T08:18:19;10.85;;;3.50;;
71127;SDS011;59249;59.736;30.568;2023-05-13T08:20:48;11.60;;;3.38;;
71127;SDS011;59249;59.736;30.568;2023-05-13T08:23:17;7.63;;;4.33;;
71127;SDS011;59249;59.736;30.568;2023-05-13T08:25:47;10.02;;;3.65;;
71127;SDS011;59249;59.736;30.568;2023-05-13T08:28:15;6.40;;;3.25;;
71127;SDS011;59249;59.736;30.568;2023-05-13T08:30:44;9.27;;;3.78;;
71127;SDS011;59249;59.736;30.568;2023-05-13T08:33:13;12.70;;;3.28;;
71127;SDS011;59249;59.736;30.568;2023-05-13T08:35:42;11.53;;;2.93;;
71127;SDS011;59249;59.736;30.568;2023-05-13T08:38:11;10.07;;;3.10;;
71127;SDS011;59249;59.736;30.568;2023-05-13T08:40:40;8.10;;;3.13;;
71127;SDS011;59249;59.736;30.568;2023-05-13T08:43:10;7.47;;;3.10;;
71127;SDS011;59249;59.736;30.568;2023-05-13T08:45:43;11.85;;;3.60;;
71127;SDS011;59249;59.736;30.568;2023-05-13T08:48:14;7.00;;;3.53;;
71127;SDS011;59249;59.736;30.568;2023-05-13T08:50:44;10.23;;;2.83;;
71127;SDS011;59249;59.736;30.568;2023-05-13T08:53:15;8.88;;;2.97;;
71127;SDS011;59249;59.736;30.568;2023-05-13T08:55:45;7.20;;;2.92;;
71127;SDS011;59249;59.736;30.568;2023-05-13T08:58:28;5.13;;;2.97;;
71127;SDS011;59249;59.736;30.568;2023-05-13T09:00:57;9.83;;;3.10;;
71127;SDS011;59249;59.736;30.568;2023-05-13T09:03:26;7.38;;;3.50;;
71127;SDS011;59249;59.736;30.568;2023-05-13T09:05:58;8.93;;;3.33;;
71127;SDS011;59249;59.736;30.568;2023-05-13T09:08:28;6.43;;;2.80;;
71127;SDS011;59249;59.736;30.568;2023-05-13T09:10:58;8.45;;;3.42;;
71127;SDS011;59249;59.736;30.568;2023-05-13T09:13:29;11.83;;;4.00;;
71127;SDS011;59249;59.736;30.568;2023-05-13T09:15:57;10.13;;;3.65;;
71127;SDS011;59249;59.736;30.568;2023-05-13T09:18:28;9.88;;;4.10;;
71127;SDS011;59249;59.736;30.568;2023-05-13T09:21:00;9.68;;;3.25;;
71127;SDS011;59249;59.736;30.568;2023-05-13T09:23:54;6.18;;;3.50;;
71127;SDS011;59249;59.736;30.568;2023-05-13T09:26:36;6.43;;;2.90;;
71127;SDS011;59249;59.736;30.568;2023-05-13T09:29:17;8.52;;;3.58;;
71127;SDS011;59249;59.736;30.568;2023-05-13T09:31:49;9.27;;;3.15;;
71127;SDS011;59249;59.736;30.568;2023-05-13T09:34:23;6.45;;;3.10;;
71127;SDS011;59249;59.736;30.568;2023-05-13T09:36:57;10.40;;;3.55;;
71127;SDS011;59249;59.736;30.568;2023-05-13T09:39:30;8.10;;;2.30;;
71127;SDS011;59249;59.736;30.568;2023-05-13T09:42:00;6.45;;;2.40;;
71127;SDS011;59249;59.736;30.568;2023-05-13T09:44:34;7.93;;;3.38;;
71127;SDS011;59249;59.736;30.568;2023-05-13T09:47:05;6.70;;;3.08;;
71127;SDS011;59249;59.736;30.568;2023-05-13T09:49:34;6.25;;;2.80;;
71127;SDS011;59249;59.736;30.568;2023-05-13T09:52:03;8.60;;;3.27;;
71127;SDS011;59249;59.736;30.568;2023-05-13T09:54:35;8.15;;;3.40;;
71127;SDS011;59249;59.736;30.568;2023-05-13T09:57:05;10.10;;;3.38;;
71127;SDS011;59249;59.736;30.568;2023-05-13T09:59:35;7.50;;;3.08;;
71127;SDS011;59249;59.736;30.568;2023-05-13T10:02:04;11.18;;;3.50;;
71127;SDS011;59249;59.736;30.568;2023-05-13T10:04:35;9.10;;;3.43;;
71127;SDS011;59249;59.736;30.568;2023-05-13T10:07:05;9.75;;;2.95;;
71127;SDS011;59249;59.736;30.568;2023-05-13T10:09:36;8.02;;;3.55;;
71127;SDS011;59249;59.736;30.568;2023-05-13T10:12:07;5.93;;;3.13;;
71127;SDS011;59249;59.736;30.568;2023-05-13T10:14:42;9.90;;;4.00;;
71127;SDS011;59249;59.736;30.568;2023-05-13T10:17:11;10.20;;;3.53;;
71127;SDS011;59249;59.736;30.568;2023-05-13T10:19:41;10.20;;;3.65;;
71127;SDS011;59249;59.736;30.568;2023-05-13T10:22:10;9.32;;;3.83;;
71127;SDS011;59249;59.736;30.568;2023-05-13T10:24:41;9.40;;;3.95;;
71127;SDS011;59249;59.736;30.568;2023-05-13T10:27:11;10.05;;;3.70;;
71127;SDS011;59249;59.736;30.568;2023-05-13T10:29:40;9.63;;;3.60;;
71127;SDS011;59249;59.736;30.568;2023-05-13T10:32:13;8.52;;;3.40;;
71127;SDS011;59249;59.736;30.568;2023-05-13T10:34:42;6.70;;;3.58;;
71127;SDS011;59249;59.736;30.568;2023-05-13T10:37:19;9.45;;;4.18;;
71127;SDS011;59249;59.736;30.568;2023-05-13T10:43:38;8.03;;;3.67;;
71127;SDS011;59249;59.736;30.568;2023-05-13T10:46:10;8.55;;;3.15;;
71127;SDS011;59249;59.736;30.568;2023-05-13T10:48:40;9.05;;;3.65;;
71127;SDS011;59249;59.736;30.568;2023-05-13T10:51:13;10.73;;;4.40;;
71127;SDS011;59249;59.736;30.568;2023-05-13T10:53:46;12.52;;;4.68;;
71127;SDS011;59249;59.736;30.568;2023-05-13T10:56:18;10.47;;;4.70;;
71127;SDS011;59249;59.736;30.568;2023-05-13T10:58:58;9.40;;;4.05;;
71127;SDS011;59249;59.736;30.568;2023-05-13T11:01:32;13.88;;;4.68;;
71127;SDS011;59249;59.736;30.568;2023-05-13T11:04:04;14.13;;;4.28;;
71127;SDS011;59249;59.736;30.568;2023-05-13T11:06:35;7.15;;;3.92;;
71127;SDS011;59249;59.736;30.568;2023-05-13T11:09:05;9.70;;;3.60;;
71127;SDS011;59249;59.736;30.568;2023-05-13T11:11:36;15.00;;;4.32;;
71127;SDS011;59249;59.736;30.568;2023-05-13T11:14:13;8.90;;;4.80;;
71127;SDS011;59249;59.736;30.568;2023-05-13T11:16:46;8.75;;;3.50;;
71127;SDS011;59249;59.736;30.568;2023-05-13T11:19:19;8.05;;;3.95;;
71127;SDS011;59249;59.736;30.568;2023-05-13T11:21:53;7.63;;;3.70;;
71127;SDS011;59249;59.736;30.568;2023-05-13T11:24:25;10.10;;;4.05;;
71127;SDS011;59249;59.736;30.568;2023-05-13T11:26:54;14.55;;;4.05;;
71127;SDS011;59249;59.736;30.568;2023-05-13T11:29:31;4.63;;;2.25;;
71127;SDS011;59249;59.736;30.568;2023-05-13T11:32:03;9.05;;;3.08;;
71127;SDS011;59249;59.736;30.568;2023-05-13T11:34:33;7.57;;;3.13;;
71127;SDS011;59249;59.736;30.568;2023-05-13T11:37:06;7.25;;;2.90;;
71127;SDS011;59249;59.736;30.568;2023-05-13T11:39:37;10.02;;;2.83;;
71127;SDS011;59249;59.736;30.568;2023-05-13T11:42:08;6.93;;;2.95;;
71127;SDS011;59249;59.736;30.568;2023-05-13T11:44:43;7.50;;;3.08;;
71127;SDS011;59249;59.736;30.568;2023-05-13T11:47:15;6.37;;;2.87;;
71127;SDS011;59249;59.736;30.568;2023-05-13T11:49:54;6.38;;;3.10;;
71127;SDS011;59249;59.736;30.568;2023-05-13T11:52:23;8.05;;;4.18;;
71127;SDS011;59249;59.736;30.568;2023-05-13T11:54:52;8.65;;;2.80;;
71127;SDS011;59249;59.736;30.568;2023-05-13T11:57:22;5.28;;;2.63;;
71127;SDS011;59249;59.736;30.568;2023-05-13T11:59:54;5.73;;;2.40;;
71127;SDS011;59249;59.736;30.568;2023-05-13T12:02:27;6.10;;;2.50;;
71127;SDS011;59249;59.736;30.568;2023-05-13T12:04:59;5.90;;;2.50;;
71127;SDS011;59249;59.736;30.568;2023-05-13T12:07:31;5.40;;;2.42;;
71127;SDS011;59249;59.736;30.568;2023-05-13T12:10:02;7.22;;;2.33;;
71127;SDS011;59249;59.736;30.568;2023-05-13T12:12:36;6.00;;;2.77;;
71127;SDS011;59249;59.736;30.568;2023-05-13T12:15:07;6.50;;;2.55;;
71127;SDS011;59249;59.736;30.568;2023-05-13T12:17:40;5.72;;;2.40;;
71127;SDS011;59249;59.736;30.568;2023-05-13T12:20:10;4.88;;;2.72;;
71127;SDS011;59249;59.736;30.568;2023-05-13T12:22:51;5.57;;;2.30;;
71127;SDS011;59249;59.736;30.568;2023-05-13T12:25:36;7.47;;;2.30;;
71127;SDS011;59249;59.736;30.568;2023-05-13T12:28:09;6.47;;;2.95;;
71127;SDS011;59249;59.736;30.568;2023-05-13T12:30:48;5.13;;;2.38;;
71127;SDS011;59249;59.736;30.568;2023-05-13T12:33:21;5.68;;;2.20;;
71127;SDS011;59249;59.736;30.568;2023-05-13T12:35:53;8.13;;;2.60;;
71127;SDS011;59249;59.736;30.568;2023-05-13T12:38:52;4.93;;;2.30;;
71127;SDS011;59249;59.736;30.568;2023-05-13T12:41:29;4.85;;;2.03;;
71127;SDS011;59249;59.736;30.568;2023-05-13T12:43:59;5.45;;;1.92;;
71127;SDS011;59249;59.736;30.568;2023-05-13T12:46:29;5.88;;;2.30;;
71127;SDS011;59249;59.736;30.568;2023-05-13T12:49:00;4.05;;;2.15;;
71127;SDS011;59249;59.736;30.568;2023-05-13T12:51:31;5.97;;;2.27;;
71127;SDS011;59249;59.736;30.568;2023-05-13T12:54:00;7.40;;;2.25;;
71127;SDS011;59249;59.736;30.568;2023-05-13T12:56:29;10.07;;;2.55;;
71127;SDS011;59249;59.736;30.568;2023-05-13T12:58:58;5.45;;;1.95;;
71127;SDS011;59249;59.736;30.568;2023-05-13T13:01:27;6.03;;;1.40;;
71127;SDS011;59249;59.736;30.568;2023-05-13T13:03:56;3.23;;;1.73;;
71127;SDS011;59249;59.736;30.568;2023-05-13T13:06:26;5.25;;;2.17;;
71127;SDS011;59249;59.736;30.568;2023-05-13T13:08:56;5.55;;;2.45;;
71127;SDS011;59249;59.736;30.568;2023-05-13T13:11:24;6.20;;;2.20;;
71127;SDS011;59249;59.736;30.568;2023-05-13T13:13:53;7.75;;;2.17;;
71127;SDS011;59249;59.736;30.568;2023-05-13T13:16:22;4.40;;;2.07;;
71127;SDS011;59249;59.736;30.568;2023-05-13T13:18:51;4.97;;;2.08;;
71127;SDS011;59249;59.736;30.568;2023-05-13T13:21:22;4.93;;;2.03;;
71127;SDS011;59249;59.736;30.568;2023-05-13T13:23:52;5.57;;;2.03;;
71127;SDS011;59249;59.736;30.568;2023-05-13T13:26:21;6.22;;;2.40;;
71127;SDS011;59249;59.736;30.568;2023-05-13T13:28:50;4.97;;;1.97;;
71127;SDS011;59249;59.736;30.568;2023-05-13T13:31:18;5.43;;;1.70;;
71127;SDS011;59249;59.736;30.568;2023-05-13T13:33:47;5.28;;;1.70;;
71127;SDS011;59249;59.736;30.568;2023-05-13T13:36:19;3.95;;;1.63;;
71127;SDS011;59249;59.736;30.568;2023-05-13T13:38:48;5.32;;;1.60;;
71127;SDS011;59249;59.736;30.568;2023-05-13T13:41:18;5.63;;;1.60;;
71127;SDS011;59249;59.736;30.568;2023-05-13T13:43:51;3.45;;;1.63;;
71127;SDS011;59249;59.736;30.568;2023-05-13T13:46:43;3.47;;;1.27;;
71127;SDS011;59249;59.736;30.568;2023-05-13T13:49:12;4.57;;;1.10;;
71127;SDS011;59249;59.736;30.568;2023-05-13T13:51:49;5.63;;;1.75;;
71127;SDS011;59249;59.736;30.568;2023-05-13T13:54:19;5.13;;;1.50;;
71127;SDS011;59249;59.736;30.568;2023-05-13T13:56:50;5.07;;;1.40;;
71127;SDS011;59249;59.736;30.568;2023-05-13T13:59:19;3.72;;;1.10;;
71127;SDS011;59249;59.736;30.568;2023-05-13T14:01:48;8.23;;;1.98;;
71127;SDS011;59249;59.736;30.568;2023-05-13T14:04:18;4.05;;;1.60;;
71127;SDS011;59249;59.736;30.568;2023-05-13T14:06:49;3.03;;;1.27;;
71127;SDS011;59249;59.736;30.568;2023-05-13T14:09:18;5.85;;;1.40;;
71127;SDS011;59249;59.736;30.568;2023-05-13T14:11:51;3.60;;;1.05;;
71127;SDS011;59249;59.736;30.568;2023-05-13T14:14:20;5.60;;;1.33;;
71127;SDS011;59249;59.736;30.568;2023-05-13T14:16:50;4.25;;;1.15;;
71127;SDS011;59249;59.736;30.568;2023-05-13T14:19:19;4.33;;;0.90;;
71127;SDS011;59249;59.736;30.568;2023-05-13T14:21:47;3.50;;;1.13;;
71127;SDS011;59249;59.736;30.568;2023-05-13T14:24:17;2.80;;;1.10;;
71127;SDS011;59249;59.736;30.568;2023-05-13T14:26:46;2.25;;;0.70;;
71127;SDS011;59249;59.736;30.568;2023-05-13T14:29:16;2.00;;;0.73;;
71127;SDS011;59249;59.736;30.568;2023-05-13T14:31:46;3.60;;;0.80;;
71127;SDS011;59249;59.736;30.568;2023-05-13T14:34:15;3.30;;;0.90;;
71127;SDS011;59249;59.736;30.568;2023-05-13T14:36:44;3.85;;;0.82;;
71127;SDS011;59249;59.736;30.568;2023-05-13T14:39:13;4.18;;;0.80;;
71127;SDS011;59249;59.736;30.568;2023-05-13T14:41:42;2.22;;;0.68;;
71127;SDS011;59249;59.736;30.568;2023-05-13T14:44:12;5.50;;;1.10;;
71127;SDS011;59249;59.736;30.568;2023-05-13T14:46:42;3.95;;;1.40;;
71127;SDS011;59249;59.736;30.568;2023-05-13T14:49:11;4.03;;;0.80;;
71127;SDS011;59249;59.736;30.568;2023-05-13T14:51:40;3.75;;;0.73;;
71127;SDS011;59249;59.736;30.568;2023-05-13T14:54:09;4.80;;;0.75;;